Nowshera Weather



Nowshera's Current Weather

Temprature 6o mist

mist

Rain: 0 %

Min Temprature6o
Max Temprature6o
Humidity93
Wind Speed1.96 m/h
Sun Rise07:16:21
Sun Set17:28:02
Current Time: 18-Jan-2021 05:39:41
Lat/Lon: 34.0058, 71.9977




Nowshera's Geo Location



Nowshera's Weather Forecast

Time Overall Temp Min Temp Max Temp Humidity Wind Speed Rain
18-Jan-2021 (Mon)
08:00:00 scattered clouds 7.990 7.990 10.070 71 1.59 m/h 0 %
11:00:00 scattered clouds 13.820 13.820 15.980 45 1.25 m/h 0 %
14:00:00 clear sky 18.250 18.250 19.090 31 1.75 m/h 0 %
17:00:00 clear sky 16.990 16.990 17.080 32 0.92 m/h 0 %
20:00:00 clear sky 13.640 13.640 13.640 38 0.6 m/h 0 %
23:00:00 clear sky 11.650 11.650 11.650 43 0.61 m/h 0 %
19-Jan-2021 (Tue)
02:00:00 clear sky 10.420 10.420 10.420 47 0.65 m/h 0 %
05:00:00 clear sky 9.620 9.620 9.620 49 1.16 m/h 0 %
08:00:00 clear sky 9.870 9.870 9.870 49 1.2 m/h 0 %
11:00:00 clear sky 16.330 16.330 16.330 30 1.89 m/h 0 %
14:00:00 clear sky 20.010 20.010 20.010 23 2.73 m/h 0 %
17:00:00 clear sky 17.710 17.710 17.710 28 1.8 m/h 0 %
20:00:00 clear sky 14.200 14.200 14.200 34 1.19 m/h 0 %
23:00:00 clear sky 11.570 11.570 11.570 41 0.29 m/h 0 %
20-Jan-2021 (Wed)
02:00:00 clear sky 10.350 10.350 10.350 44 0.77 m/h 0 %
05:00:00 clear sky 9.530 9.530 9.530 45 1.54 m/h 0 %
08:00:00 clear sky 9.970 9.970 9.970 43 1.69 m/h 0 %
11:00:00 clear sky 16.530 16.530 16.530 27 2.68 m/h 0 %
14:00:00 clear sky 20.990 20.990 20.990 21 3.29 m/h 0 %
17:00:00 few clouds 18.250 18.250 18.250 26 2.83 m/h 0 %
20:00:00 broken clouds 15.360 15.360 15.360 30 2.66 m/h 0 %
23:00:00 scattered clouds 12.020 12.020 12.020 38 1.09 m/h 0 %
21-Jan-2021 (Thu)
02:00:00 broken clouds 10.540 10.540 10.540 41 1 m/h 0 %
05:00:00 broken clouds 9.700 9.700 9.700 42 1.34 m/h 0 %
08:00:00 overcast clouds 9.870 9.870 9.870 42 1.06 m/h 0 %
11:00:00 overcast clouds 16.080 16.080 16.080 27 1.81 m/h 0 %
14:00:00 overcast clouds 19.190 19.190 19.190 21 1.55 m/h 0 %
17:00:00 overcast clouds 16.430 16.430 16.430 28 0.94 m/h 0 %
20:00:00 broken clouds 13.470 13.470 13.470 32 1.15 m/h 0 %
23:00:00 scattered clouds 11.650 11.650 11.650 36 1.74 m/h 0 %
22-Jan-2021 (Fri)
02:00:00 few clouds 10.040 10.040 10.040 41 1.6 m/h 0 %
05:00:00 broken clouds 9.420 9.420 9.420 42 1.24 m/h 0 %
08:00:00 scattered clouds 9.810 9.810 9.810 43 0.27 m/h 0 %
11:00:00 few clouds 16.400 16.400 16.400 27 0.66 m/h 0 %
14:00:00 few clouds 19.890 19.890 19.890 22 0.82 m/h 0 %
17:00:00 clear sky 17.790 17.790 17.790 28 0.58 m/h 0 %
20:00:00 clear sky 13.680 13.680 13.680 34 0.8 m/h 0 %
23:00:00 clear sky 11.910 11.910 11.910 38 1.07 m/h 0 %
23-Jan-2021 (Sat)
02:00:00 clear sky 10.830 10.830 10.830 44 2.32 m/h 0 %
05:00:00 clear sky 10.530 10.530 10.530 38 5.64 m/h 0 %

Famous Cities (60)